Tokyo - Kashiwa, Japan

5:44 PM JST on August 29, 2016 (GMT +0900)
Abiko | | Change Station

Elev 0 ft 35.88 °N, 140.02 °E | Updated 1 minute ago

Scattered Clouds
Scattered Clouds
82.6 °F
Feels Like 91 °F
N
5.0
Wind Variable Wind from East
Gusts 10.6 mph

Today
High -- | Low -- °F
--% Chance of Precip.
Yesterday
High -- | Low -- °F
Precip. -- in
Pressure 29.24 in
Visibility 6.2 miles
Clouds Few 2000 ft
Scattered Clouds 3000 ft
Heat Index 91 °F
Dew Point 76 °F
Humidity 81%
Rainfall 0.02 in
Snow Depth Not available.
5:09 AM 6:11 PM
Waning Crescent, 10% visible
METAR RJTI 290700Z 03009KT 330V070 9999 FEW020 SCT030 30/23 Q0990
Pressure 29.24 in
Visibility 6.2 miles
Clouds Few 2000 ft
Scattered Clouds 3000 ft
Heat Index 91 °F
Dew Point 76 °F
Humidity 81%
Rainfall 0.02 in
Snow Depth Not available.
5:09 AM 6:11 PM
Waning Crescent, 10% visible
METAR RJTI 290700Z 03009KT 330V070 9999 FEW020 SCT030 30/23 Q0990

10-Day Weather Forecast

No radar image for this location.
×

Almanac

Astronomy

Aug. 29, 2016 Rise Set
Actual Time
Civil Twilight
Nautical Twilight
Astronomical Twilight
Moon
Length of Visible Light
Length of Day
Tomorrow will be .
, % of the Moon is Illuminated

Today's Extremes

Country Highs Country Lows

Community

WunderPhotos

Upload Photos

1,935,800 photos uploaded!

WunderBlog® & News

Nearby

Air Quality

  Air Quality AQ Index Pollutant
Not available.

Snow Depth

Station Depth Elevation

Earthquake Activity

City Distance Mag. Time & Date
Minimum magnitude displayed is 2.5.

Coastal Water Temperatures

Place Temperature

Stations

Nearby Weather Stations

Station Location Temp. Windchill Dew Point Humidity Wind Precip. Elev Updated Type